sensor_id;sensor_type;location;lat;lon;timestamp;temperature;humidity
15426;DHT22;7812;50.072;7.036;2023-10-19T00:00:36;11.30;99.90
15426;DHT22;7812;50.072;7.036;2023-10-19T00:03:05;11.40;99.90
15426;DHT22;7812;50.072;7.036;2023-10-19T00:05:34;11.40;99.90
15426;DHT22;7812;50.072;7.036;2023-10-19T00:08:01;11.30;99.90
15426;DHT22;7812;50.072;7.036;2023-10-19T00:10:31;11.10;99.90
15426;DHT22;7812;50.072;7.036;2023-10-19T00:13:04;11.00;99.90
15426;DHT22;7812;50.072;7.036;2023-10-19T00:15:34;10.90;99.90
15426;DHT22;7812;50.072;7.036;2023-10-19T00:18:05;11.00;99.90
15426;DHT22;7812;50.072;7.036;2023-10-19T00:20:48;11.00;99.90
15426;DHT22;7812;50.072;7.036;2023-10-19T00:23:22;11.10;99.90
15426;DHT22;7812;50.072;7.036;2023-10-19T00:26:01;11.20;99.90
15426;DHT22;7812;50.072;7.036;2023-10-19T00:28:35;11.30;99.90
15426;DHT22;7812;50.072;7.036;2023-10-19T00:31:04;11.40;99.90
15426;DHT22;7812;50.072;7.036;2023-10-19T00:33:34;11.50;99.90
15426;DHT22;7812;50.072;7.036;2023-10-19T00:36:07;11.50;99.90
15426;DHT22;7812;50.072;7.036;2023-10-19T00:38:34;11.50;99.90
15426;DHT22;7812;50.072;7.036;2023-10-19T00:41:01;11.50;99.90
15426;DHT22;7812;50.072;7.036;2023-10-19T00:43:41;11.50;99.90
15426;DHT22;7812;50.072;7.036;2023-10-19T00:46:14;11.50;99.90
15426;DHT22;7812;50.072;7.036;2023-10-19T00:48:48;11.60;99.90
15426;DHT22;7812;50.072;7.036;2023-10-19T00:51:17;11.70;99.90
15426;DHT22;7812;50.072;7.036;2023-10-19T00:54:02;11.60;99.90
15426;DHT22;7812;50.072;7.036;2023-10-19T00:56:35;11.80;99.90
15426;DHT22;7812;50.072;7.036;2023-10-19T00:59:04;11.80;99.90
15426;DHT22;7812;50.072;7.036;2023-10-19T01:01:41;11.80;99.90
15426;DHT22;7812;50.072;7.036;2023-10-19T01:04:11;11.90;99.90
15426;DHT22;7812;50.072;7.036;2023-10-19T01:06:44;11.90;99.90
15426;DHT22;7812;50.072;7.036;2023-10-19T01:09:23;11.90;99.90
15426;DHT22;7812;50.072;7.036;2023-10-19T01:11:52;11.90;99.90
15426;DHT22;7812;50.072;7.036;2023-10-19T01:14:22;11.90;99.90
15426;DHT22;7812;50.072;7.036;2023-10-19T01:16:53;11.90;99.90
15426;DHT22;7812;50.072;7.036;2023-10-19T01:19:22;11.80;99.90
15426;DHT22;7812;50.072;7.036;2023-10-19T01:21:49;11.80;99.90
15426;DHT22;7812;50.072;7.036;2023-10-19T01:24:19;11.80;99.90
15426;DHT22;7812;50.072;7.036;2023-10-19T01:26:53;11.80;99.90
15426;DHT22;7812;50.072;7.036;2023-10-19T01:29:19;11.80;99.90
15426;DHT22;7812;50.072;7.036;2023-10-19T01:31:52;11.70;99.90
15426;DHT22;7812;50.072;7.036;2023-10-19T01:34:34;11.70;99.90
15426;DHT22;7812;50.072;7.036;2023-10-19T01:37:01;11.80;99.90
15426;DHT22;7812;50.072;7.036;2023-10-19T01:39:33;11.90;99.90
15426;DHT22;7812;50.072;7.036;2023-10-19T01:42:01;12.00;99.90
15426;DHT22;7812;50.072;7.036;2023-10-19T01:44:29;12.10;99.90
15426;DHT22;7812;50.072;7.036;2023-10-19T01:46:55;12.00;99.90
15426;DHT22;7812;50.072;7.036;2023-10-19T01:49:21;12.00;99.90
15426;DHT22;7812;50.072;7.036;2023-10-19T01:51:56;11.90;99.90
15426;DHT22;7812;50.072;7.036;2023-10-19T01:54:23;11.90;99.90
15426;DHT22;7812;50.072;7.036;2023-10-19T01:56:54;11.90;99.90
15426;DHT22;7812;50.072;7.036;2023-10-19T01:59:23;12.00;99.90
15426;DHT22;7812;50.072;7.036;2023-10-19T02:02:00;12.00;99.90
15426;DHT22;7812;50.072;7.036;2023-10-19T02:04:27;12.00;99.90
15426;DHT22;7812;50.072;7.036;2023-10-19T02:06:53;12.10;99.90
15426;DHT22;7812;50.072;7.036;2023-10-19T02:09:20;12.00;99.90
15426;DHT22;7812;50.072;7.036;2023-10-19T02:11:53;12.00;99.90
15426;DHT22;7812;50.072;7.036;2023-10-19T02:14:21;12.00;99.90
15426;DHT22;7812;50.072;7.036;2023-10-19T02:16:52;12.00;99.90
15426;DHT22;7812;50.072;7.036;2023-10-19T02:19:22;12.00;99.90
15426;DHT22;7812;50.072;7.036;2023-10-19T02:21:51;12.00;99.90
15426;DHT22;7812;50.072;7.036;2023-10-19T02:24:18;12.00;99.90
15426;DHT22;7812;50.072;7.036;2023-10-19T02:26:46;12.00;99.90
15426;DHT22;7812;50.072;7.036;2023-10-19T02:29:16;12.00;99.90
15426;DHT22;7812;50.072;7.036;2023-10-19T02:31:44;11.90;99.90
15426;DHT22;7812;50.072;7.036;2023-10-19T02:34:11;11.90;99.90
15426;DHT22;7812;50.072;7.036;2023-10-19T02:36:38;11.90;99.90
15426;DHT22;7812;50.072;7.036;2023-10-19T02:39:10;11.80;99.90
15426;DHT22;7812;50.072;7.036;2023-10-19T02:41:44;11.70;99.90
15426;DHT22;7812;50.072;7.036;2023-10-19T02:44:18;11.70;99.90
15426;DHT22;7812;50.072;7.036;2023-10-19T02:46:54;11.80;99.90
15426;DHT22;7812;50.072;7.036;2023-10-19T02:49:31;11.90;99.90
15426;DHT22;7812;50.072;7.036;2023-10-19T02:51:57;11.80;99.90
15426;DHT22;7812;50.072;7.036;2023-10-19T02:54:29;11.80;99.90
15426;DHT22;7812;50.072;7.036;2023-10-19T02:56:58;11.70;99.90
15426;DHT22;7812;50.072;7.036;2023-10-19T02:59:25;11.60;99.90
15426;DHT22;7812;50.072;7.036;2023-10-19T03:01:55;11.70;99.90
15426;DHT22;7812;50.072;7.036;2023-10-19T03:04:40;11.60;99.90
15426;DHT22;7812;50.072;7.036;2023-10-19T03:07:07;11.60;99.90
15426;DHT22;7812;50.072;7.036;2023-10-19T03:09:33;11.60;99.90
15426;DHT22;7812;50.072;7.036;2023-10-19T03:12:03;11.60;99.90
15426;DHT22;7812;50.072;7.036;2023-10-19T03:14:29;11.50;99.90
15426;DHT22;7812;50.072;7.036;2023-10-19T03:16:57;11.60;99.90
15426;DHT22;7812;50.072;7.036;2023-10-19T03:19:23;11.60;99.90
15426;DHT22;7812;50.072;7.036;2023-10-19T03:21:52;11.70;99.90
15426;DHT22;7812;50.072;7.036;2023-10-19T03:24:19;11.70;99.90
15426;DHT22;7812;50.072;7.036;2023-10-19T03:27:08;11.70;99.90
15426;DHT22;7812;50.072;7.036;2023-10-19T03:29:39;11.70;99.90
15426;DHT22;7812;50.072;7.036;2023-10-19T03:32:05;11.70;99.90
15426;DHT22;7812;50.072;7.036;2023-10-19T03:34:35;11.70;99.90
15426;DHT22;7812;50.072;7.036;2023-10-19T03:37:01;11.70;99.90
15426;DHT22;7812;50.072;7.036;2023-10-19T03:39:37;11.80;99.90
15426;DHT22;7812;50.072;7.036;2023-10-19T03:42:04;11.90;99.90
15426;DHT22;7812;50.072;7.036;2023-10-19T03:44:33;11.80;99.90
15426;DHT22;7812;50.072;7.036;2023-10-19T03:47:08;11.80;99.90
15426;DHT22;7812;50.072;7.036;2023-10-19T03:49:38;11.90;99.90
15426;DHT22;7812;50.072;7.036;2023-10-19T03:52:05;11.80;99.90
15426;DHT22;7812;50.072;7.036;2023-10-19T03:54:34;11.80;99.90
15426;DHT22;7812;50.072;7.036;2023-10-19T03:57:00;11.70;99.90
15426;DHT22;7812;50.072;7.036;2023-10-19T03:59:31;11.80;99.90
15426;DHT22;7812;50.072;7.036;2023-10-19T04:01:59;11.60;99.90
15426;DHT22;7812;50.072;7.036;2023-10-19T04:04:26;11.70;99.90
15426;DHT22;7812;50.072;7.036;2023-10-19T04:06:55;11.80;99.90
15426;DHT22;7812;50.072;7.036;2023-10-19T04:09:29;11.80;99.90
15426;DHT22;7812;50.072;7.036;2023-10-19T04:11:58;11.90;99.90
15426;DHT22;7812;50.072;7.036;2023-10-19T04:14:24;11.80;99.90
15426;DHT22;7812;50.072;7.036;2023-10-19T04:16:50;11.90;99.90
15426;DHT22;7812;50.072;7.036;2023-10-19T04:19:16;11.90;99.90
15426;DHT22;7812;50.072;7.036;2023-10-19T04:21:42;11.90;99.90
15426;DHT22;7812;50.072;7.036;2023-10-19T04:24:12;11.80;99.90
15426;DHT22;7812;50.072;7.036;2023-10-19T04:26:39;11.90;99.90
15426;DHT22;7812;50.072;7.036;2023-10-19T04:29:07;11.90;99.90
15426;DHT22;7812;50.072;7.036;2023-10-19T04:31:39;11.90;99.90
15426;DHT22;7812;50.072;7.036;2023-10-19T04:34:16;12.10;99.90
15426;DHT22;7812;50.072;7.036;2023-10-19T04:36:46;12.00;99.90
15426;DHT22;7812;50.072;7.036;2023-10-19T04:39:12;12.10;99.90
15426;DHT22;7812;50.072;7.036;2023-10-19T04:41:42;12.30;99.90
15426;DHT22;7812;50.072;7.036;2023-10-19T04:44:10;12.30;99.90
15426;DHT22;7812;50.072;7.036;2023-10-19T04:46:36;12.30;99.90
15426;DHT22;7812;50.072;7.036;2023-10-19T04:49:02;12.40;99.90
15426;DHT22;7812;50.072;7.036;2023-10-19T04:51:29;12.60;99.90
15426;DHT22;7812;50.072;7.036;2023-10-19T04:53:55;12.70;99.90
15426;DHT22;7812;50.072;7.036;2023-10-19T04:56:21;12.90;99.90
15426;DHT22;7812;50.072;7.036;2023-10-19T04:58:47;12.80;99.90
15426;DHT22;7812;50.072;7.036;2023-10-19T05:01:14;12.90;99.90
15426;DHT22;7812;50.072;7.036;2023-10-19T05:03:41;13.10;99.90
15426;DHT22;7812;50.072;7.036;2023-10-19T05:06:07;13.10;99.90
15426;DHT22;7812;50.072;7.036;2023-10-19T05:08:35;13.20;99.90
15426;DHT22;7812;50.072;7.036;2023-10-19T05:11:02;13.10;99.90
15426;DHT22;7812;50.072;7.036;2023-10-19T05:13:30;13.30;99.90
15426;DHT22;7812;50.072;7.036;2023-10-19T05:15:57;13.60;99.90
15426;DHT22;7812;50.072;7.036;2023-10-19T05:18:25;13.80;99.90
15426;DHT22;7812;50.072;7.036;2023-10-19T05:20:52;14.00;99.90
15426;DHT22;7812;50.072;7.036;2023-10-19T05:23:22;13.90;99.90
15426;DHT22;7812;50.072;7.036;2023-10-19T05:25:50;13.80;99.90
15426;DHT22;7812;50.072;7.036;2023-10-19T05:28:17;13.90;99.90
15426;DHT22;7812;50.072;7.036;2023-10-19T05:30:44;13.80;99.90
15426;DHT22;7812;50.072;7.036;2023-10-19T05:33:10;13.70;99.90
15426;DHT22;7812;50.072;7.036;2023-10-19T05:35:36;13.80;99.90
15426;DHT22;7812;50.072;7.036;2023-10-19T05:38:08;13.80;99.90
15426;DHT22;7812;50.072;7.036;2023-10-19T05:40:34;13.70;99.90
15426;DHT22;7812;50.072;7.036;2023-10-19T05:43:01;13.60;99.90
15426;DHT22;7812;50.072;7.036;2023-10-19T05:45:28;13.60;99.90
15426;DHT22;7812;50.072;7.036;2023-10-19T05:47:58;13.50;99.90
15426;DHT22;7812;50.072;7.036;2023-10-19T05:50:24;13.50;99.90
15426;DHT22;7812;50.072;7.036;2023-10-19T05:52:50;13.60;99.90
15426;DHT22;7812;50.072;7.036;2023-10-19T05:55:17;13.50;99.90
15426;DHT22;7812;50.072;7.036;2023-10-19T05:57:46;13.40;99.90
15426;DHT22;7812;50.072;7.036;2023-10-19T06:00:12;13.40;99.90
15426;DHT22;7812;50.072;7.036;2023-10-19T06:02:46;13.40;99.90
15426;DHT22;7812;50.072;7.036;2023-10-19T06:05:16;13.40;99.90
15426;DHT22;7812;50.072;7.036;2023-10-19T06:07:46;13.30;99.90
15426;DHT22;7812;50.072;7.036;2023-10-19T06:10:22;13.50;99.90
15426;DHT22;7812;50.072;7.036;2023-10-19T06:12:49;13.40;99.90
15426;DHT22;7812;50.072;7.036;2023-10-19T06:15:16;13.50;99.90
15426;DHT22;7812;50.072;7.036;2023-10-19T06:17:43;13.50;99.90
15426;DHT22;7812;50.072;7.036;2023-10-19T06:20:10;13.40;99.90
15426;DHT22;7812;50.072;7.036;2023-10-19T06:22:54;13.20;99.90
15426;DHT22;7812;50.072;7.036;2023-10-19T06:25:24;13.20;99.90
15426;DHT22;7812;50.072;7.036;2023-10-19T06:27:51;13.20;99.90
15426;DHT22;7812;50.072;7.036;2023-10-19T06:30:18;13.20;99.90
15426;DHT22;7812;50.072;7.036;2023-10-19T06:32:48;13.30;99.90
15426;DHT22;7812;50.072;7.036;2023-10-19T06:35:16;13.20;99.90
15426;DHT22;7812;50.072;7.036;2023-10-19T06:37:42;13.20;99.90
15426;DHT22;7812;50.072;7.036;2023-10-19T06:40:09;13.20;99.90
15426;DHT22;7812;50.072;7.036;2023-10-19T06:42:37;13.20;99.90
15426;DHT22;7812;50.072;7.036;2023-10-19T06:45:04;13.30;99.90
15426;DHT22;7812;50.072;7.036;2023-10-19T06:47:31;13.20;99.90
15426;DHT22;7812;50.072;7.036;2023-10-19T06:49:56;13.20;99.90
15426;DHT22;7812;50.072;7.036;2023-10-19T06:52:23;13.00;99.90
15426;DHT22;7812;50.072;7.036;2023-10-19T06:54:48;13.10;99.90
15426;DHT22;7812;50.072;7.036;2023-10-19T06:57:14;13.20;99.90
15426;DHT22;7812;50.072;7.036;2023-10-19T06:59:40;13.20;99.90
15426;DHT22;7812;50.072;7.036;2023-10-19T07:02:05;13.20;99.90
15426;DHT22;7812;50.072;7.036;2023-10-19T07:04:33;13.30;99.90
15426;DHT22;7812;50.072;7.036;2023-10-19T07:06:59;13.20;99.90
15426;DHT22;7812;50.072;7.036;2023-10-19T07:09:26;13.10;99.90
15426;DHT22;7812;50.072;7.036;2023-10-19T07:11:52;13.10;99.90
15426;DHT22;7812;50.072;7.036;2023-10-19T07:14:28;13.20;99.90
15426;DHT22;7812;50.072;7.036;2023-10-19T07:16:54;13.40;99.90
15426;DHT22;7812;50.072;7.036;2023-10-19T07:19:19;13.50;99.90
15426;DHT22;7812;50.072;7.036;2023-10-19T07:21:45;13.60;99.90
15426;DHT22;7812;50.072;7.036;2023-10-19T07:24:15;13.70;99.90
15426;DHT22;7812;50.072;7.036;2023-10-19T07:26:40;13.70;99.90
15426;DHT22;7812;50.072;7.036;2023-10-19T07:29:21;13.80;99.90
15426;DHT22;7812;50.072;7.036;2023-10-19T07:31:47;13.90;99.90
15426;DHT22;7812;50.072;7.036;2023-10-19T07:34:13;13.90;99.90
15426;DHT22;7812;50.072;7.036;2023-10-19T07:36:41;13.90;99.90
15426;DHT22;7812;50.072;7.036;2023-10-19T07:39:11;14.00;99.90
15426;DHT22;7812;50.072;7.036;2023-10-19T07:41:44;14.30;99.90
15426;DHT22;7812;50.072;7.036;2023-10-19T07:44:11;14.60;99.90
15426;DHT22;7812;50.072;7.036;2023-10-19T07:46:37;14.60;99.90
15426;DHT22;7812;50.072;7.036;2023-10-19T07:49:03;14.60;99.90
15426;DHT22;7812;50.072;7.036;2023-10-19T07:51:29;14.40;99.90
15426;DHT22;7812;50.072;7.036;2023-10-19T07:53:58;14.70;99.90
15426;DHT22;7812;50.072;7.036;2023-10-19T07:56:24;15.70;99.90
15426;DHT22;7812;50.072;7.036;2023-10-19T07:58:50;16.80;99.90
15426;DHT22;7812;50.072;7.036;2023-10-19T08:01:16;17.30;99.90
15426;DHT22;7812;50.072;7.036;2023-10-19T08:03:41;17.40;99.90
15426;DHT22;7812;50.072;7.036;2023-10-19T08:06:07;17.30;99.90
15426;DHT22;7812;50.072;7.036;2023-10-19T08:08:33;16.50;99.90
15426;DHT22;7812;50.072;7.036;2023-10-19T08:11:00;16.40;99.90
15426;DHT22;7812;50.072;7.036;2023-10-19T08:13:26;16.60;99.90
15426;DHT22;7812;50.072;7.036;2023-10-19T08:15:52;16.30;99.90
15426;DHT22;7812;50.072;7.036;2023-10-19T08:18:18;16.60;99.90
15426;DHT22;7812;50.072;7.036;2023-10-19T08:20:45;16.60;99.90
15426;DHT22;7812;50.072;7.036;2023-10-19T08:23:12;16.70;99.90
15426;DHT22;7812;50.072;7.036;2023-10-19T08:25:39;16.50;99.90
15426;DHT22;7812;50.072;7.036;2023-10-19T08:28:05;16.40;99.90
15426;DHT22;7812;50.072;7.036;2023-10-19T08:30:32;16.70;99.90
15426;DHT22;7812;50.072;7.036;2023-10-19T08:32:59;17.00;99.90
15426;DHT22;7812;50.072;7.036;2023-10-19T08:35:26;18.00;99.90
15426;DHT22;7812;50.072;7.036;2023-10-19T08:37:56;18.20;99.90
15426;DHT22;7812;50.072;7.036;2023-10-19T08:40:26;19.00;99.90
15426;DHT22;7812;50.072;7.036;2023-10-19T08:42:53;19.40;99.90
15426;DHT22;7812;50.072;7.036;2023-10-19T08:45:19;19.90;99.90
15426;DHT22;7812;50.072;7.036;2023-10-19T08:47:58;19.80;99.90
15426;DHT22;7812;50.072;7.036;2023-10-19T08:50:29;20.10;99.90
15426;DHT22;7812;50.072;7.036;2023-10-19T08:52:57;19.70;99.90
15426;DHT22;7812;50.072;7.036;2023-10-19T08:55:24;19.10;99.90
15426;DHT22;7812;50.072;7.036;2023-10-19T08:57:50;18.30;99.90
15426;DHT22;7812;50.072;7.036;2023-10-19T09:00:17;18.20;99.90
15426;DHT22;7812;50.072;7.036;2023-10-19T09:02:47;18.00;99.90
15426;DHT22;7812;50.072;7.036;2023-10-19T09:05:13;18.20;99.90
15426;DHT22;7812;50.072;7.036;2023-10-19T09:07:54;18.70;99.90
15426;DHT22;7812;50.072;7.036;2023-10-19T09:10:24;18.90;99.90
15426;DHT22;7812;50.072;7.036;2023-10-19T09:13:20;19.10;99.90
15426;DHT22;7812;50.072;7.036;2023-10-19T09:15:48;18.60;99.90
15426;DHT22;7812;50.072;7.036;2023-10-19T09:18:26;18.40;99.90
15426;DHT22;7812;50.072;7.036;2023-10-19T09:20:56;18.40;99.90
15426;DHT22;7812;50.072;7.036;2023-10-19T09:23:32;18.10;99.90
15426;DHT22;7812;50.072;7.036;2023-10-19T09:26:00;18.00;99.90
15426;DHT22;7812;50.072;7.036;2023-10-19T09:28:29;18.00;99.90
15426;DHT22;7812;50.072;7.036;2023-10-19T09:30:55;18.00;99.90
15426;DHT22;7812;50.072;7.036;2023-10-19T09:33:22;18.00;99.90
15426;DHT22;7812;50.072;7.036;2023-10-19T09:35:50;18.00;99.90
15426;DHT22;7812;50.072;7.036;2023-10-19T09:38:19;17.90;99.90
15426;DHT22;7812;50.072;7.036;2023-10-19T09:40:51;17.70;99.90
15426;DHT22;7812;50.072;7.036;2023-10-19T09:43:37;17.50;99.90
15426;DHT22;7812;50.072;7.036;2023-10-19T09:46:08;17.40;99.90
15426;DHT22;7812;50.072;7.036;2023-10-19T09:48:42;17.40;99.90
15426;DHT22;7812;50.072;7.036;2023-10-19T09:51:11;17.20;99.90
15426;DHT22;7812;50.072;7.036;2023-10-19T09:53:38;17.10;99.90
15426;DHT22;7812;50.072;7.036;2023-10-19T09:56:06;17.10;99.90
15426;DHT22;7812;50.072;7.036;2023-10-19T09:58:41;17.10;99.90
15426;DHT22;7812;50.072;7.036;2023-10-19T10:01:10;17.00;99.90
15426;DHT22;7812;50.072;7.036;2023-10-19T10:06:13;16.90;99.90
15426;DHT22;7812;50.072;7.036;2023-10-19T10:08:43;16.90;99.90
15426;DHT22;7812;50.072;7.036;2023-10-19T10:11:20;17.00;99.90
15426;DHT22;7812;50.072;7.036;2023-10-19T10:13:48;17.20;99.90
15426;DHT22;7812;50.072;7.036;2023-10-19T10:16:26;17.20;99.90
15426;DHT22;7812;50.072;7.036;2023-10-19T10:18:59;17.30;99.90
15426;DHT22;7812;50.072;7.036;2023-10-19T10:21:26;17.50;99.90
15426;DHT22;7812;50.072;7.036;2023-10-19T10:26:24;17.20;99.90
15426;DHT22;7812;50.072;7.036;2023-10-19T10:29:14;17.30;99.90
15426;DHT22;7812;50.072;7.036;2023-10-19T10:31:47;17.10;99.90
15426;DHT22;7812;50.072;7.036;2023-10-19T10:39:30;17.70;99.90
15426;DHT22;7812;50.072;7.036;2023-10-19T10:41:57;18.10;99.90
15426;DHT22;7812;50.072;7.036;2023-10-19T10:44:37;18.20;99.90
15426;DHT22;7812;50.072;7.036;2023-10-19T10:47:10;18.40;99.90
15426;DHT22;7812;50.072;7.036;2023-10-19T10:49:58;18.50;99.90
15426;DHT22;7812;50.072;7.036;2023-10-19T10:55:10;19.00;99.90
15426;DHT22;7812;50.072;7.036;2023-10-19T10:57:43;19.10;99.90
15426;DHT22;7812;50.072;7.036;2023-10-19T11:00:13;19.60;99.90
15426;DHT22;7812;50.072;7.036;2023-10-19T11:02:45;20.90;99.90
15426;DHT22;7812;50.072;7.036;2023-10-19T11:05:16;21.50;99.90
15426;DHT22;7812;50.072;7.036;2023-10-19T11:08:14;21.60;99.90
15426;DHT22;7812;50.072;7.036;2023-10-19T11:10:42;21.90;99.90
15426;DHT22;7812;50.072;7.036;2023-10-19T11:13:13;21.20;99.90
15426;DHT22;7812;50.072;7.036;2023-10-19T11:15:50;21.20;99.90
15426;DHT22;7812;50.072;7.036;2023-10-19T11:18:35;20.80;99.90
15426;DHT22;7812;50.072;7.036;2023-10-19T11:21:03;20.30;99.90
15426;DHT22;7812;50.072;7.036;2023-10-19T11:23:43;20.40;99.90
15426;DHT22;7812;50.072;7.036;2023-10-19T11:26:10;20.00;99.90
15426;DHT22;7812;50.072;7.036;2023-10-19T11:28:37;19.90;99.90
15426;DHT22;7812;50.072;7.036;2023-10-19T11:31:17;19.80;99.90
15426;DHT22;7812;50.072;7.036;2023-10-19T11:33:47;19.80;99.90
15426;DHT22;7812;50.072;7.036;2023-10-19T11:36:15;19.70;99.90
15426;DHT22;7812;50.072;7.036;2023-10-19T11:38:43;19.60;99.90
15426;DHT22;7812;50.072;7.036;2023-10-19T11:41:10;19.50;99.90
15426;DHT22;7812;50.072;7.036;2023-10-19T11:43:36;19.30;99.90
15426;DHT22;7812;50.072;7.036;2023-10-19T11:46:02;19.10;99.90
15426;DHT22;7812;50.072;7.036;2023-10-19T11:48:35;18.70;99.90
15426;DHT22;7812;50.072;7.036;2023-10-19T11:51:05;18.40;99.90
15426;DHT22;7812;50.072;7.036;2023-10-19T11:53:35;18.20;99.90
15426;DHT22;7812;50.072;7.036;2023-10-19T11:56:08;18.30;99.90
15426;DHT22;7812;50.072;7.036;2023-10-19T11:58:35;18.20;99.90
15426;DHT22;7812;50.072;7.036;2023-10-19T12:01:03;17.90;99.90
15426;DHT22;7812;50.072;7.036;2023-10-19T12:03:31;17.80;99.90
15426;DHT22;7812;50.072;7.036;2023-10-19T12:05:57;17.80;99.90
15426;DHT22;7812;50.072;7.036;2023-10-19T12:08:23;17.70;99.90
15426;DHT22;7812;50.072;7.036;2023-10-19T12:10:50;17.60;99.90
15426;DHT22;7812;50.072;7.036;2023-10-19T12:13:17;17.50;99.90
15426;DHT22;7812;50.072;7.036;2023-10-19T12:15:43;17.50;99.90
15426;DHT22;7812;50.072;7.036;2023-10-19T12:18:19;17.50;99.90
15426;DHT22;7812;50.072;7.036;2023-10-19T12:20:46;17.50;99.90
15426;DHT22;7812;50.072;7.036;2023-10-19T12:23:13;17.40;99.90
15426;DHT22;7812;50.072;7.036;2023-10-19T12:25:39;17.40;99.90
15426;DHT22;7812;50.072;7.036;2023-10-19T12:28:05;17.50;99.90
15426;DHT22;7812;50.072;7.036;2023-10-19T12:30:31;17.40;99.90
15426;DHT22;7812;50.072;7.036;2023-10-19T12:33:04;17.40;99.90
15426;DHT22;7812;50.072;7.036;2023-10-19T12:35:38;17.40;99.90
15426;DHT22;7812;50.072;7.036;2023-10-19T12:38:22;17.30;99.90
15426;DHT22;7812;50.072;7.036;2023-10-19T12:40:50;17.30;99.90
15426;DHT22;7812;50.072;7.036;2023-10-19T12:43:20;17.20;99.90
15426;DHT22;7812;50.072;7.036;2023-10-19T12:45:48;17.10;99.90
15426;DHT22;7812;50.072;7.036;2023-10-19T12:48:19;17.10;99.90
15426;DHT22;7812;50.072;7.036;2023-10-19T12:50:46;17.00;99.90
15426;DHT22;7812;50.072;7.036;2023-10-19T12:53:13;16.90;99.90
15426;DHT22;7812;50.072;7.036;2023-10-19T12:55:39;16.70;99.90
15426;DHT22;7812;50.072;7.036;2023-10-19T12:58:05;16.60;99.90
15426;DHT22;7812;50.072;7.036;2023-10-19T13:00:35;16.50;99.90
15426;DHT22;7812;50.072;7.036;2023-10-19T13:03:04;16.50;99.90
15426;DHT22;7812;50.072;7.036;2023-10-19T13:05:34;16.60;99.90
15426;DHT22;7812;50.072;7.036;2023-10-19T13:08:07;16.60;99.90
15426;DHT22;7812;50.072;7.036;2023-10-19T13:10:35;16.70;99.90
15426;DHT22;7812;50.072;7.036;2023-10-19T13:13:04;16.60;99.90
15426;DHT22;7812;50.072;7.036;2023-10-19T13:15:35;16.40;99.90
15426;DHT22;7812;50.072;7.036;2023-10-19T13:18:02;16.30;99.90
15426;DHT22;7812;50.072;7.036;2023-10-19T13:20:29;16.20;99.90
15426;DHT22;7812;50.072;7.036;2023-10-19T13:23:08;16.20;99.90
15426;DHT22;7812;50.072;7.036;2023-10-19T13:25:47;16.10;99.90
15426;DHT22;7812;50.072;7.036;2023-10-19T13:28:19;16.10;99.90
15426;DHT22;7812;50.072;7.036;2023-10-19T13:30:50;16.10;99.90
15426;DHT22;7812;50.072;7.036;2023-10-19T13:33:17;16.10;99.90
15426;DHT22;7812;50.072;7.036;2023-10-19T13:35:44;16.00;99.90
15426;DHT22;7812;50.072;7.036;2023-10-19T13:38:11;16.10;99.90
15426;DHT22;7812;50.072;7.036;2023-10-19T13:40:40;16.10;99.90
15426;DHT22;7812;50.072;7.036;2023-10-19T13:43:06;16.10;99.90
15426;DHT22;7812;50.072;7.036;2023-10-19T13:45:34;15.90;99.90
15426;DHT22;7812;50.072;7.036;2023-10-19T13:48:04;15.90;99.90
15426;DHT22;7812;50.072;7.036;2023-10-19T13:50:30;15.90;99.90
15426;DHT22;7812;50.072;7.036;2023-10-19T13:52:57;15.90;99.90
15426;DHT22;7812;50.072;7.036;2023-10-19T13:55:23;16.00;99.90
15426;DHT22;7812;50.072;7.036;2023-10-19T13:57:49;16.10;99.90
15426;DHT22;7812;50.072;7.036;2023-10-19T14:00:16;16.10;99.90
15426;DHT22;7812;50.072;7.036;2023-10-19T14:02:51;16.00;99.90
15426;DHT22;7812;50.072;7.036;2023-10-19T14:05:17;16.00;99.90
15426;DHT22;7812;50.072;7.036;2023-10-19T14:07:44;16.10;99.90
15426;DHT22;7812;50.072;7.036;2023-10-19T14:10:10;16.20;99.90
15426;DHT22;7812;50.072;7.036;2023-10-19T14:12:39;16.30;99.90
15426;DHT22;7812;50.072;7.036;2023-10-19T14:15:19;16.40;99.90
15426;DHT22;7812;50.072;7.036;2023-10-19T14:17:46;16.60;99.90
15426;DHT22;7812;50.072;7.036;2023-10-19T14:20:13;16.80;99.90
15426;DHT22;7812;50.072;7.036;2023-10-19T14:22:41;16.90;99.90
15426;DHT22;7812;50.072;7.036;2023-10-19T14:25:08;17.00;99.90
15426;DHT22;7812;50.072;7.036;2023-10-19T14:27:39;17.20;99.90
15426;DHT22;7812;50.072;7.036;2023-10-19T14:30:05;17.30;99.90
15426;DHT22;7812;50.072;7.036;2023-10-19T14:32:31;17.40;99.90
15426;DHT22;7812;50.072;7.036;2023-10-19T14:34:56;17.50;99.90
15426;DHT22;7812;50.072;7.036;2023-10-19T14:37:22;17.60;99.90
15426;DHT22;7812;50.072;7.036;2023-10-19T14:39:47;17.60;99.90
15426;DHT22;7812;50.072;7.036;2023-10-19T14:42:13;17.60;99.90
15426;DHT22;7812;50.072;7.036;2023-10-19T14:44:39;17.60;99.90
15426;DHT22;7812;50.072;7.036;2023-10-19T14:47:05;17.60;99.90
15426;DHT22;7812;50.072;7.036;2023-10-19T14:49:31;17.60;99.90
15426;DHT22;7812;50.072;7.036;2023-10-19T14:51:58;17.80;99.90
15426;DHT22;7812;50.072;7.036;2023-10-19T14:54:23;17.90;99.90
15426;DHT22;7812;50.072;7.036;2023-10-19T14:56:49;18.10;99.90
15426;DHT22;7812;50.072;7.036;2023-10-19T14:59:15;18.20;99.90
15426;DHT22;7812;50.072;7.036;2023-10-19T15:01:40;18.20;99.90
15426;DHT22;7812;50.072;7.036;2023-10-19T15:04:07;18.10;99.90
15426;DHT22;7812;50.072;7.036;2023-10-19T15:06:32;18.10;99.90
15426;DHT22;7812;50.072;7.036;2023-10-19T15:08:58;18.20;99.90
15426;DHT22;7812;50.072;7.036;2023-10-19T15:11:24;17.90;99.90
15426;DHT22;7812;50.072;7.036;2023-10-19T15:13:50;17.80;99.90
15426;DHT22;7812;50.072;7.036;2023-10-19T15:16:16;17.80;99.90
15426;DHT22;7812;50.072;7.036;2023-10-19T15:18:42;17.90;99.90
15426;DHT22;7812;50.072;7.036;2023-10-19T15:21:09;17.80;99.90
15426;DHT22;7812;50.072;7.036;2023-10-19T15:23:35;17.60;99.90
15426;DHT22;7812;50.072;7.036;2023-10-19T15:26:01;17.40;99.90
15426;DHT22;7812;50.072;7.036;2023-10-19T15:28:27;17.40;99.90
15426;DHT22;7812;50.072;7.036;2023-10-19T15:30:58;17.20;99.90
15426;DHT22;7812;50.072;7.036;2023-10-19T15:33:26;17.20;99.90
15426;DHT22;7812;50.072;7.036;2023-10-19T15:35:52;17.00;99.90
15426;DHT22;7812;50.072;7.036;2023-10-19T15:38:20;16.80;99.90
15426;DHT22;7812;50.072;7.036;2023-10-19T15:40:46;16.70;99.90
15426;DHT22;7812;50.072;7.036;2023-10-19T15:43:12;16.70;99.90
15426;DHT22;7812;50.072;7.036;2023-10-19T15:45:37;16.60;99.90
15426;DHT22;7812;50.072;7.036;2023-10-19T15:48:05;16.50;99.90
15426;DHT22;7812;50.072;7.036;2023-10-19T15:50:31;16.50;99.90
15426;DHT22;7812;50.072;7.036;2023-10-19T15:53:00;16.40;99.90
15426;DHT22;7812;50.072;7.036;2023-10-19T15:55:27;16.30;99.90
15426;DHT22;7812;50.072;7.036;2023-10-19T15:57:53;16.20;99.90
15426;DHT22;7812;50.072;7.036;2023-10-19T16:00:19;16.10;99.90
15426;DHT22;7812;50.072;7.036;2023-10-19T16:02:45;16.00;99.90
15426;DHT22;7812;50.072;7.036;2023-10-19T16:05:11;16.00;99.90
15426;DHT22;7812;50.072;7.036;2023-10-19T16:07:37;15.90;99.90
15426;DHT22;7812;50.072;7.036;2023-10-19T16:10:04;15.70;99.90